Time;durP1;ratioP1;P1;durP2;ratioP2;P2;SDS_P1;SDS_P2;PMS_P1;PMS_P2;Temp;Humidity;BMP_temperature;BMP_pressure;BME280_temperature;BME280_humidity;BME280_pressure;Samples;Min_cycle;Max_cycle;Signal;HPM_P1;HPM_P2
2022/10/23 00:01:22;;;;;;;13.30;2.50;;;15.20;99.90;;;;;;5020104;28;20128;-62
2022/10/23 00:03:53;;;;;;;9.80;2.70;;;15.30;99.90;;;;;;5030844;28;20323;-62
2022/10/23 00:06:20;;;;;;;18.95;2.80;;;15.30;99.90;;;;;;5020909;28;20042;-61
2022/10/23 00:08:47;;;;;;;12.40;2.72;;;15.30;99.90;;;;;;5030459;28;20055;-61
2022/10/23 00:11:15;;;;;;;18.88;2.58;;;15.30;99.90;;;;;;5019932;28;20052;-63
2022/10/23 00:13:42;;;;;;;9.68;2.97;;;15.30;99.90;;;;;;5030741;28;20042;-64
2022/10/23 00:16:08;;;;;;;9.10;2.40;;;15.30;99.90;;;;;;5019486;28;20061;-62
2022/10/23 00:18:36;;;;;;;15.35;2.63;;;15.30;99.90;;;;;;5032004;28;20064;-62
2022/10/23 00:21:05;;;;;;;8.55;2.40;;;15.30;99.90;;;;;;5017865;28;20100;-62
2022/10/23 00:23:32;;;;;;;12.88;2.58;;;15.30;99.90;;;;;;5029638;28;20055;-63
2022/10/23 00:25:59;;;;;;;18.98;3.25;;;15.30;99.90;;;;;;5025689;28;20420;-62
2022/10/23 00:28:26;;;;;;;11.53;2.00;;;15.30;99.90;;;;;;4321113;28;10021548;-62
2022/10/23 00:30:52;;;;;;;9.90;2.20;;;15.30;99.90;;;;;;5009120;28;20512;-62
2022/10/23 00:33:20;;;;;;;11.10;1.90;;;15.30;99.90;;;;;;5011939;28;20053;-62
2022/10/23 00:35:47;;;;;;;14.60;2.30;;;15.20;99.90;;;;;;5015113;28;20045;-63
2022/10/23 00:38:14;;;;;;;17.20;2.83;;;15.30;99.90;;;;;;5028618;28;20069;-63
2022/10/23 00:40:42;;;;;;;9.45;3.15;;;15.30;99.90;;;;;;5023770;28;20046;-63
2022/10/23 00:43:17;;;;;;;14.68;3.38;;;15.30;99.90;;;;;;5017724;28;20088;-62
2022/10/23 00:45:44;;;;;;;20.92;3.08;;;15.30;99.90;;;;;;5011568;28;20045;-62
2022/10/23 00:48:11;;;;;;;20.58;2.42;;;15.20;99.90;;;;;;5009089;28;20049;-62
2022/10/23 00:50:38;;;;;;;11.30;3.08;;;15.30;99.90;;;;;;5011195;28;20509;-63
2022/10/23 00:53:04;;;;;;;9.52;2.63;;;15.30;99.90;;;;;;5016103;28;20054;-62
2022/10/23 00:55:31;;;;;;;9.55;2.60;;;15.30;99.90;;;;;;5027126;28;20049;-63
2022/10/23 00:57:58;;;;;;;17.05;2.55;;;15.30;99.90;;;;;;5017252;28;20523;-62
2022/10/23 01:00:27;;;;;;;11.50;3.00;;;15.30;99.90;;;;;;5027010;28;20049;-63
2022/10/23 01:02:54;;;;;;;12.85;3.78;;;15.20;99.90;;;;;;5013850;28;20805;-63
2022/10/23 01:05:24;;;;;;;10.40;2.28;;;15.30;99.90;;;;;;5027071;28;20080;-62
2022/10/23 01:07:56;;;;;;;9.38;2.70;;;15.30;99.90;;;;;;5004291;28;20061;-63
2022/10/23 01:10:33;;;;;;;9.80;2.75;;;15.30;99.90;;;;;;4992205;28;20076;-62
2022/10/23 01:13:21;;;;;;;12.25;2.58;;;15.30;99.90;;;;;;5012341;28;20046;-63
2022/10/23 01:15:50;;;;;;;14.73;2.40;;;15.30;99.90;;;;;;4805638;23;20062;-62
2022/10/23 01:18:27;;;;;;;10.55;3.47;;;15.30;99.90;;;;;;4604796;23;10001878;-63
2022/10/23 01:21:24;;;;;;;10.65;2.28;;;15.30;99.90;;;;;;4929852;29;20060;-62
2022/10/23 01:24:25;;;;;;;12.73;2.47;;;15.30;99.90;;;;;;4961504;28;20059;-62
2022/10/23 01:27:11;;;;;;;11.52;2.78;;;15.30;99.90;;;;;;4948059;29;20046;-63
2022/10/23 01:29:43;;;;;;;17.73;3.28;;;15.30;99.90;;;;;;4940623;29;20047;-62
2022/10/23 01:32:23;;;;;;;9.63;2.78;;;15.30;99.90;;;;;;4931830;29;20055;-63
2022/10/23 01:34:56;;;;;;;12.85;3.15;;;15.30;99.90;;;;;;4940414;29;20098;-63
2022/10/23 01:37:34;;;;;;;16.77;3.33;;;15.40;99.90;;;;;;4946014;29;20059;-63
2022/10/23 01:40:02;;;;;;;13.57;2.60;;;15.30;99.90;;;;;;4940044;29;20049;-63
2022/10/23 01:42:35;;;;;;;12.95;2.95;;;15.40;99.90;;;;;;4964181;28;20086;-63
2022/10/23 01:45:07;;;;;;;15.00;3.07;;;15.40;99.90;;;;;;4926941;29;20067;-63
2022/10/23 01:47:34;;;;;;;13.52;2.95;;;15.40;99.90;;;;;;4952349;29;20294;-62
2022/10/23 01:50:02;;;;;;;12.00;2.45;;;15.40;99.90;;;;;;4930248;29;20518;-62
2022/10/23 01:52:29;;;;;;;13.05;3.03;;;15.40;99.90;;;;;;4937009;29;20051;-62
2022/10/23 01:54:58;;;;;;;12.57;2.65;;;15.40;99.90;;;;;;4946450;29;20488;-62
2022/10/23 01:57:24;;;;;;;12.90;2.70;;;15.40;99.90;;;;;;4921036;29;20048;-62
2022/10/23 01:59:54;;;;;;;11.68;2.95;;;15.40;99.90;;;;;;4939129;29;20047;-62
2022/10/23 02:02:21;;;;;;;15.02;2.95;;;15.40;99.90;;;;;;4954866;29;20047;-62
2022/10/23 02:05:17;;;;;;;12.18;2.78;;;15.40;99.90;;;;;;4969777;28;20055;-62
2022/10/23 02:07:44;;;;;;;9.55;2.40;;;15.40;99.90;;;;;;4949935;28;20511;-62
2022/10/23 02:10:11;;;;;;;16.65;3.15;;;15.40;99.90;;;;;;4944721;29;20075;-63
2022/10/23 02:12:39;;;;;;;14.43;2.88;;;15.40;99.90;;;;;;4954581;29;20055;-63
2022/10/23 02:15:15;;;;;;;14.63;3.13;;;15.40;99.90;;;;;;4938467;29;20054;-62
2022/10/23 02:18:08;;;;;;;9.88;3.15;;;15.40;99.90;;;;;;4955492;29;20071;-62
2022/10/23 02:20:43;;;;;;;9.20;3.00;;;15.40;99.90;;;;;;4941985;29;20047;-62
2022/10/23 02:23:16;;;;;;;14.50;2.80;;;15.40;99.90;;;;;;4953996;29;20058;-62
2022/10/23 02:25:59;;;;;;;14.38;2.92;;;15.40;99.90;;;;;;4943003;29;20125;-62
2022/10/23 02:28:29;;;;;;;9.60;3.13;;;15.40;99.90;;;;;;4953616;29;20139;-62
2022/10/23 02:30:56;;;;;;;12.35;3.22;;;15.40;99.90;;;;;;4927896;29;20130;-62
2022/10/23 02:33:23;;;;;;;17.10;3.20;;;15.40;99.90;;;;;;4938519;29;20482;-62
2022/10/23 02:35:49;;;;;;;15.20;3.28;;;15.40;99.90;;;;;;4943222;29;20047;-62
2022/10/23 02:38:32;;;;;;;16.48;3.58;;;15.40;99.90;;;;;;4954457;29;20055;-62
2022/10/23 02:41:30;;;;;;;9.43;2.75;;;15.40;99.90;;;;;;4943220;28;20496;-61
2022/10/23 02:44:21;;;;;;;11.35;2.90;;;15.40;99.90;;;;;;4954733;29;20049;-62
2022/10/23 02:46:56;;;;;;;9.63;2.83;;;15.40;99.90;;;;;;4953010;29;20047;-62
2022/10/23 02:50:01;;;;;;;12.82;2.72;;;15.40;99.90;;;;;;4953781;29;20047;-62
2022/10/23 02:52:52;;;;;;;11.65;2.85;;;15.40;99.90;;;;;;4946398;28;20059;-61
2022/10/23 02:55:38;;;;;;;10.50;2.72;;;15.40;99.90;;;;;;4964536;28;20123;-62
2022/10/23 02:58:27;;;;;;;11.75;2.85;;;15.30;99.90;;;;;;4950899;29;20083;-63
2022/10/23 03:01:09;;;;;;;12.30;3.00;;;15.40;99.90;;;;;;4946557;29;20270;-61
2022/10/23 03:03:53;;;;;;;12.60;3.95;;;15.40;99.90;;;;;;4938033;29;20442;-61
2022/10/23 03:06:20;;;;;;;21.15;3.42;;;15.30;99.90;;;;;;4937857;29;20410;-61
2022/10/23 03:08:58;;;;;;;9.75;2.97;;;15.40;99.90;;;;;;4965982;28;20048;-61
2022/10/23 03:11:25;;;;;;;12.05;3.97;;;15.30;99.90;;;;;;4945008;29;20514;-61
2022/10/23 03:13:51;;;;;;;13.38;2.65;;;15.40;99.90;;;;;;4936397;29;20044;-62
2022/10/23 03:16:18;;;;;;;11.57;3.55;;;15.30;99.90;;;;;;4941160;29;20399;-62
2022/10/23 03:18:45;;;;;;;12.55;2.63;;;15.30;99.90;;;;;;4940109;29;20047;-61
2022/10/23 03:21:11;;;;;;;10.13;3.05;;;15.30;99.90;;;;;;4940618;29;20051;-62
2022/10/23 03:23:38;;;;;;;13.75;2.95;;;15.30;99.90;;;;;;4941747;29;20056;-62
2022/10/23 03:26:05;;;;;;;8.95;2.50;;;15.30;99.90;;;;;;4938129;29;20044;-62
2022/10/23 03:28:32;;;;;;;10.65;2.20;;;15.30;99.90;;;;;;4944173;29;20059;-62
2022/10/23 03:31:01;;;;;;;14.00;2.53;;;15.40;99.90;;;;;;4936221;29;20049;-62
2022/10/23 03:33:28;;;;;;;12.90;3.03;;;15.40;99.90;;;;;;4945951;29;20053;-62
2022/10/23 03:35:55;;;;;;;11.23;2.05;;;15.40;99.90;;;;;;4936550;29;20134;-60
2022/10/23 03:38:22;;;;;;;11.13;2.83;;;15.40;99.90;;;;;;4945816;29;20047;-62
2022/10/23 03:40:48;;;;;;;17.65;3.42;;;15.40;99.90;;;;;;4935158;29;20059;-62
2022/10/23 03:43:15;;;;;;;13.70;3.55;;;15.40;99.90;;;;;;4946374;29;20044;-62
2022/10/23 03:45:42;;;;;;;10.48;2.60;;;15.40;99.90;;;;;;4931989;29;20078;-62
2022/10/23 03:48:09;;;;;;;6.93;2.78;;;15.40;99.90;;;;;;4596099;29;10000143;-62
2022/10/23 03:50:36;;;;;;;6.95;2.08;;;15.30;99.90;;;;;;4954353;28;20043;-62
2022/10/23 03:53:02;;;;;;;9.55;2.20;;;15.40;99.90;;;;;;4942263;29;20055;-62
2022/10/23 03:55:30;;;;;;;9.38;1.90;;;15.40;99.90;;;;;;4953979;29;20047;-62
2022/10/23 03:57:57;;;;;;;10.90;2.58;;;15.40;99.90;;;;;;4944253;28;20051;-62
2022/10/23 04:00:24;;;;;;;15.68;3.00;;;15.40;99.90;;;;;;4950859;29;20058;-62
2022/10/23 04:02:50;;;;;;;10.38;2.47;;;15.40;99.90;;;;;;4946301;29;20495;-62
2022/10/23 04:05:17;;;;;;;5.93;2.03;;;15.40;99.90;;;;;;4951827;28;20058;-62
2022/10/23 04:07:44;;;;;;;9.93;2.60;;;15.40;99.90;;;;;;4957637;29;20055;-62
2022/10/23 04:10:10;;;;;;;13.30;2.10;;;15.40;99.90;;;;;;4942636;29;20056;-62
2022/10/23 04:12:37;;;;;;;11.55;2.10;;;15.40;99.90;;;;;;4935807;29;20052;-62
2022/10/23 04:15:04;;;;;;;12.35;2.20;;;15.40;99.90;;;;;;4943410;29;20052;-62
2022/10/23 04:17:31;;;;;;;9.13;2.10;;;15.50;99.90;;;;;;4935408;29;20480;-62
2022/10/23 04:19:58;;;;;;;8.20;2.13;;;15.50;99.90;;;;;;4945281;29;20126;-62
2022/10/23 04:22:24;;;;;;;12.40;2.90;;;15.50;99.90;;;;;;4935590;29;20047;-62
2022/10/23 04:24:54;;;;;;;12.07;3.05;;;15.50;99.90;;;;;;4945029;29;20467;-61
2022/10/23 04:27:21;;;;;;;9.32;2.08;;;15.50;99.90;;;;;;4934390;29;20052;-62
2022/10/23 04:29:48;;;;;;;11.15;2.15;;;15.50;99.90;;;;;;4946244;29;20051;-62
2022/10/23 04:32:14;;;;;;;13.35;2.47;;;15.50;99.90;;;;;;4934220;29;20051;-62
2022/10/23 04:34:41;;;;;;;7.80;1.85;;;15.40;99.90;;;;;;4945941;29;20051;-62
2022/10/23 04:37:08;;;;;;;5.80;1.65;;;15.50;99.90;;;;;;4934711;29;20048;-63
2022/10/23 04:39:34;;;;;;;10.40;2.67;;;15.50;99.90;;;;;;4944252;29;20047;-63
2022/10/23 04:42:01;;;;;;;9.43;1.60;;;15.50;99.90;;;;;;4934429;29;20052;-63
2022/10/23 04:44:28;;;;;;;5.78;2.10;;;15.50;99.90;;;;;;4943249;29;20065;-63
2022/10/23 04:46:55;;;;;;;7.57;2.03;;;15.50;99.90;;;;;;4936665;29;20393;-63
2022/10/23 04:49:21;;;;;;;5.45;2.08;;;15.50;99.90;;;;;;4940974;29;20051;-62
2022/10/23 04:51:48;;;;;;;6.18;1.65;;;15.50;99.90;;;;;;4938846;29;20062;-62
2022/10/23 04:54:15;;;;;;;6.57;1.98;;;15.50;99.90;;;;;;4938606;29;20058;-63
2022/10/23 04:56:41;;;;;;;7.78;1.95;;;15.50;99.90;;;;;;4941173;29;20055;-62
2022/10/23 04:59:08;;;;;;;8.57;2.45;;;15.50;99.90;;;;;;4936493;29;20499;-62
2022/10/23 05:01:35;;;;;;;8.82;1.90;;;15.50;99.90;;;;;;4942980;29;20411;-61
2022/10/23 05:04:02;;;;;;;6.85;1.83;;;15.50;99.90;;;;;;4935540;29;20111;-62
2022/10/23 05:06:29;;;;;;;8.95;2.00;;;15.50;99.90;;;;;;4944740;29;20040;-62
2022/10/23 05:08:55;;;;;;;8.07;2.00;;;15.50;99.90;;;;;;4935071;29;20052;-61
2022/10/23 05:11:22;;;;;;;9.32;1.90;;;15.50;99.90;;;;;;4943604;29;20044;-62
2022/10/23 05:13:49;;;;;;;12.00;2.08;;;15.50;99.90;;;;;;4934093;29;20063;-63
2022/10/23 05:16:31;;;;;;;9.13;1.83;;;15.50;99.90;;;;;;4947034;28;20279;-63
2022/10/23 05:18:58;;;;;;;7.20;1.85;;;15.50;99.90;;;;;;4936690;29;20135;-62
2022/10/23 05:21:27;;;;;;;9.00;1.95;;;15.60;99.90;;;;;;4948524;29;20586;-63
2022/10/23 05:23:54;;;;;;;9.85;2.17;;;15.60;99.90;;;;;;4936694;29;20055;-63
2022/10/23 05:26:21;;;;;;;9.60;2.40;;;15.60;99.90;;;;;;4948188;29;20058;-63
2022/10/23 05:28:48;;;;;;;5.97;1.55;;;15.70;99.90;;;;;;4936414;29;20055;-62
2022/10/23 05:31:15;;;;;;;12.07;2.05;;;15.70;99.90;;;;;;4946826;29;20043;-62
2022/10/23 05:33:41;;;;;;;11.32;1.85;;;15.70;99.90;;;;;;4936784;29;20400;-63
2022/10/23 05:36:08;;;;;;;7.93;1.15;;;15.70;99.90;;;;;;4946224;29;20051;-63
2022/10/23 05:38:35;;;;;;;4.30;1.40;;;15.70;99.90;;;;;;4939569;29;20073;-62
2022/10/23 05:41:02;;;;;;;5.57;1.50;;;15.80;99.90;;;;;;4952350;28;20051;-63
2022/10/23 05:43:30;;;;;;;11.00;1.85;;;15.80;99.90;;;;;;4942376;29;20612;-62
2022/10/23 05:45:57;;;;;;;6.70;1.60;;;15.80;99.90;;;;;;4941189;29;20424;-62
2022/10/23 05:48:24;;;;;;;5.30;1.55;;;15.80;99.90;;;;;;4944185;28;20059;-61
2022/10/23 05:51:07;;;;;;;5.65;1.83;;;15.80;99.90;;;;;;4940393;29;20138;-63
2022/10/23 05:53:34;;;;;;;8.38;2.42;;;15.80;99.90;;;;;;4944058;28;20142;-62
2022/10/23 05:56:07;;;;;;;11.10;2.28;;;15.80;99.90;;;;;;4940269;29;20058;-62
2022/10/23 05:58:34;;;;;;;8.13;1.50;;;15.80;99.90;;;;;;4945385;29;20051;-61
2022/10/23 06:01:05;;;;;;;4.20;1.52;;;15.70;99.90;;;;;;4937765;29;20122;-62
2022/10/23 06:03:32;;;;;;;4.22;1.20;;;15.70;99.90;;;;;;4946109;29;20150;-62
2022/10/23 06:05:59;;;;;;;6.68;1.83;;;15.60;99.90;;;;;;4954581;29;20075;-62
2022/10/23 06:08:25;;;;;;;5.15;1.63;;;15.60;99.90;;;;;;4944995;29;20043;-62
2022/10/23 06:10:52;;;;;;;9.02;2.15;;;15.60;99.90;;;;;;4954955;29;20422;-62
2022/10/23 06:13:19;;;;;;;8.75;1.50;;;15.60;99.90;;;;;;4944347;29;20051;-61
2022/10/23 06:15:46;;;;;;;8.05;1.55;;;15.60;99.90;;;;;;4955568;29;20507;-62
2022/10/23 06:18:12;;;;;;;11.63;2.03;;;15.60;99.90;;;;;;4943574;28;20163;-62
2022/10/23 06:20:39;;;;;;;6.07;1.40;;;15.60;99.90;;;;;;4954405;29;20062;-62
2022/10/23 06:23:06;;;;;;;7.68;1.75;;;15.60;99.90;;;;;;4943474;29;20055;-61
2022/10/23 06:25:33;;;;;;;3.92;1.42;;;15.60;99.90;;;;;;4955844;29;20047;-62
2022/10/23 06:27:59;;;;;;;7.00;1.55;;;15.60;99.90;;;;;;4944049;28;20054;-63
2022/10/23 06:30:26;;;;;;;7.35;1.73;;;15.60;99.90;;;;;;4953557;29;20487;-63
2022/10/23 06:32:53;;;;;;;11.57;2.40;;;15.70;99.90;;;;;;4947498;29;20443;-61
2022/10/23 06:35:20;;;;;;;5.78;1.73;;;15.70;99.90;;;;;;4951187;29;20130;-61
2022/10/23 06:37:46;;;;;;;10.98;2.30;;;15.70;99.90;;;;;;4949896;29;20265;-61
2022/10/23 06:40:13;;;;;;;5.40;1.90;;;15.70;99.90;;;;;;4949090;29;20051;-61
2022/10/23 06:42:40;;;;;;;11.82;1.73;;;15.70;99.90;;;;;;4951627;29;20051;-61
2022/10/23 06:45:07;;;;;;;15.80;2.88;;;15.80;99.90;;;;;;4946188;29;20043;-61
2022/10/23 06:47:34;;;;;;;8.43;2.33;;;15.80;99.90;;;;;;4936971;29;20126;-61
2022/10/23 06:50:01;;;;;;;11.83;1.97;;;15.70;99.90;;;;;;4600866;28;9999954;-61
2022/10/23 06:52:30;;;;;;;7.47;1.40;;;15.50;99.90;;;;;;4949165;29;20066;-61
2022/10/23 06:55:13;;;;;;;12.00;2.67;;;15.40;99.90;;;;;;4931759;29;20322;-62
2022/10/23 06:57:40;;;;;;;5.47;1.90;;;15.40;99.90;;;;;;4949356;29;20047;-62
2022/10/23 07:00:08;;;;;;;11.48;2.30;;;15.30;99.90;;;;;;4940815;28;20131;-62
2022/10/23 07:02:35;;;;;;;4.45;1.42;;;15.30;99.90;;;;;;4957268;28;20051;-62
2022/10/23 07:05:02;;;;;;;8.07;2.10;;;15.30;99.90;;;;;;4942078;29;20538;-61
2022/10/23 07:07:29;;;;;;;7.65;1.73;;;15.30;99.90;;;;;;4943737;29;20126;-62
2022/10/23 07:09:56;;;;;;;14.43;3.83;;;15.30;99.90;;;;;;4942632;29;20097;-62
2022/10/23 07:12:23;;;;;;;11.70;2.03;;;15.20;99.90;;;;;;4941417;29;20156;-61
2022/10/23 07:14:50;;;;;;;9.90;1.80;;;15.20;99.90;;;;;;4937743;29;20483;-61
2022/10/23 07:17:17;;;;;;;6.15;1.90;;;15.20;99.90;;;;;;4951255;29;20170;-61
2022/10/23 07:19:43;;;;;;;6.32;1.90;;;15.20;99.90;;;;;;4943104;28;20051;-62
2022/10/23 07:22:10;;;;;;;9.68;1.83;;;15.10;99.90;;;;;;4952181;29;20059;-62
2022/10/23 07:24:41;;;;;;;7.68;1.90;;;15.10;99.90;;;;;;4948573;29;20103;-62
2022/10/23 07:27:08;;;;;;;8.18;2.45;;;15.10;99.90;;;;;;4954005;29;20103;-62
2022/10/23 07:29:35;;;;;;;9.52;1.83;;;15.10;99.90;;;;;;4950459;29;20066;-61
2022/10/23 07:32:03;;;;;;;10.68;2.63;;;15.10;99.90;;;;;;4943208;29;20058;-61
2022/10/23 07:34:30;;;;;;;7.57;1.90;;;15.20;99.90;;;;;;4942880;29;20463;-61
2022/10/23 07:36:57;;;;;;;7.78;2.92;;;15.20;99.90;;;;;;4926627;29;20052;-61
2022/10/23 07:39:24;;;;;;;7.93;1.70;;;15.20;99.90;;;;;;4941996;28;20068;-61
2022/10/23 07:41:51;;;;;;;11.32;2.78;;;15.20;99.90;;;;;;4946351;29;20072;-61
2022/10/23 07:44:18;;;;;;;11.80;2.10;;;15.20;99.90;;;;;;4946045;29;20602;-62
2022/10/23 07:46:48;;;;;;;11.45;2.17;;;15.20;99.90;;;;;;4945293;29;20055;-62
2022/10/23 07:49:15;;;;;;;13.63;2.03;;;15.20;99.90;;;;;;4944447;28;20039;-62
2022/10/23 07:51:42;;;;;;;9.50;2.40;;;15.20;99.90;;;;;;4942777;29;20050;-62
2022/10/23 07:54:14;;;;;;;11.52;2.15;;;15.30;99.90;;;;;;4941717;29;20504;-64
2022/10/23 07:56:41;;;;;;;12.32;2.15;;;15.30;99.90;;;;;;4947419;29;20056;-63
2022/10/23 07:59:13;;;;;;;14.07;2.28;;;15.30;99.90;;;;;;4939760;29;20055;-62
2022/10/23 08:01:41;;;;;;;9.90;2.33;;;15.30;99.90;;;;;;4941586;28;20079;-62
2022/10/23 08:04:08;;;;;;;9.02;3.10;;;15.30;99.90;;;;;;4953144;29;20094;-63
2022/10/23 08:06:35;;;;;;;9.00;2.05;;;15.40;99.90;;;;;;4934772;29;20089;-63
2022/10/23 08:09:02;;;;;;;9.18;2.20;;;15.40;99.90;;;;;;4935479;29;20052;-62
2022/10/23 08:11:34;;;;;;;9.40;2.33;;;15.40;99.90;;;;;;4945760;29;20134;-63
2022/10/23 08:14:03;;;;;;;5.15;2.25;;;15.50;99.90;;;;;;4934345;28;20056;-62
2022/10/23 08:16:31;;;;;;;8.13;3.10;;;15.40;99.90;;;;;;4943786;29;20075;-60
2022/10/23 08:18:58;;;;;;;7.63;2.45;;;15.50;99.90;;;;;;4937686;28;20058;-62
2022/10/23 08:21:25;;;;;;;11.70;2.47;;;15.50;99.90;;;;;;4937656;29;20447;-62
2022/10/23 08:23:55;;;;;;;14.20;2.55;;;15.50;99.90;;;;;;4935662;29;20138;-61
2022/10/23 08:26:23;;;;;;;6.45;1.95;;;15.50;99.90;;;;;;4937143;29;20411;-63
2022/10/23 08:28:50;;;;;;;7.10;2.47;;;15.60;99.90;;;;;;4932674;29;20106;-62
2022/10/23 08:31:20;;;;;;;8.43;2.35;;;15.60;99.90;;;;;;4961792;28;20137;-63
2022/10/23 08:33:47;;;;;;;12.77;2.40;;;15.60;99.90;;;;;;4941529;29;20055;-62
2022/10/23 08:36:20;;;;;;;8.80;2.90;;;15.60;99.90;;;;;;4947588;29;20061;-63
2022/10/23 08:38:47;;;;;;;12.52;2.60;;;15.60;99.90;;;;;;4939220;29;20057;-61
2022/10/23 08:41:18;;;;;;;18.67;3.15;;;15.60;99.90;;;;;;4948647;28;20067;-62
2022/10/23 08:43:46;;;;;;;13.35;2.28;;;15.60;99.90;;;;;;4938241;29;20482;-61
2022/10/23 08:46:14;;;;;;;5.25;2.42;;;15.60;99.90;;;;;;4948569;28;20352;-62
2022/10/23 08:48:50;;;;;;;16.80;6.07;;;15.60;99.90;;;;;;4937419;29;20054;-65
2022/10/23 08:51:35;;;;;;;9.63;2.97;;;15.60;99.90;;;;;;4938032;28;20048;-62
2022/10/23 08:54:06;;;;;;;13.48;2.90;;;15.60;99.90;;;;;;4938115;29;20134;-62
2022/10/23 08:56:34;;;;;;;10.18;2.95;;;15.60;99.90;;;;;;4925574;29;20482;-64
2022/10/23 08:59:10;;;;;;;11.02;2.65;;;15.60;99.90;;;;;;4941833;29;20174;-63
2022/10/23 09:01:39;;;;;;;15.18;3.00;;;15.60;99.90;;;;;;4899077;29;20592;-63
2022/10/23 09:04:08;;;;;;;7.30;2.70;;;15.50;99.90;;;;;;4927883;29;20078;-64
2022/10/23 09:06:53;;;;;;;15.65;3.10;;;15.60;99.90;;;;;;4941282;29;20070;-62
2022/10/23 09:09:25;;;;;;;7.75;2.83;;;15.60;99.90;;;;;;4938885;29;20047;-63
2022/10/23 09:12:04;;;;;;;14.18;3.03;;;15.60;99.90;;;;;;4948945;29;20098;-63
2022/10/23 09:14:50;;;;;;;10.55;2.95;;;15.60;99.90;;;;;;4940650;29;20052;-63
2022/10/23 09:17:23;;;;;;;8.85;2.10;;;15.60;99.90;;;;;;4931306;29;20051;-63
2022/10/23 09:19:55;;;;;;;12.20;2.80;;;15.70;99.90;;;;;;4940107;29;20051;-63
2022/10/23 09:22:21;;;;;;;10.13;2.33;;;15.60;99.90;;;;;;4914740;29;20591;-63
2022/10/23 09:24:48;;;;;;;13.93;2.72;;;15.70;99.90;;;;;;4940506;29;20111;-63
2022/10/23 09:27:19;;;;;;;5.72;2.22;;;15.70;99.90;;;;;;4930981;29;20147;-62
2022/10/23 09:29:48;;;;;;;11.95;2.90;;;15.70;99.90;;;;;;4941919;29;20055;-64
2022/10/23 09:32:15;;;;;;;15.88;4.28;;;15.80;99.90;;;;;;4930900;29;20464;-63
2022/10/23 09:34:53;;;;;;;10.93;3.22;;;15.80;99.90;;;;;;4930659;29;20084;-64
2022/10/23 09:37:25;;;;;;;7.07;2.22;;;15.80;99.90;;;;;;4581008;29;10000262;-64
2022/10/23 09:40:15;;;;;;;6.97;1.70;;;15.80;99.90;;;;;;4936414;28;20582;-64
2022/10/23 09:43:16;;;;;;;7.70;2.05;;;15.90;99.90;;;;;;4929489;29;20415;-64
2022/10/23 09:45:43;;;;;;;11.27;2.30;;;15.90;99.90;;;;;;4928689;29;20060;-64
2022/10/23 09:48:12;;;;;;;5.35;1.55;;;15.90;99.90;;;;;;4930810;29;20052;-64
2022/10/23 09:50:49;;;;;;;7.10;3.05;;;15.90;99.90;;;;;;4953685;28;20122;-64
2022/10/23 09:53:32;;;;;;;6.80;1.90;;;15.90;99.90;;;;;;4947711;29;20051;-64
2022/10/23 09:56:01;;;;;;;4.88;1.35;;;15.90;99.90;;;;;;4914292;29;20061;-64
2022/10/23 09:58:33;;;;;;;5.47;2.00;;;16.00;99.90;;;;;;4930838;29;20535;-64
2022/10/23 10:01:00;;;;;;;8.38;1.90;;;16.00;99.90;;;;;;4941149;29;20055;-64
2022/10/23 10:03:27;;;;;;;10.07;2.00;;;16.00;99.90;;;;;;4933560;28;20055;-64
2022/10/23 10:05:56;;;;;;;8.88;1.80;;;16.00;99.90;;;;;;4944933;29;20062;-65
2022/10/23 10:08:45;;;;;;;11.32;2.13;;;16.10;99.90;;;;;;4933210;29;20178;-64
2022/10/23 10:11:16;;;;;;;6.15;1.63;;;16.10;99.90;;;;;;4941143;29;20047;-64
2022/10/23 10:14:21;;;;;;;13.75;2.05;;;16.10;99.90;;;;;;4932621;29;20369;-64
2022/10/23 10:17:05;;;;;;;14.98;2.65;;;16.20;99.90;;;;;;4929818;29;20130;-64
2022/10/23 10:19:39;;;;;;;4.97;2.10;;;16.10;99.90;;;;;;4947431;29;20155;-64
2022/10/23 10:22:28;;;;;;;6.05;2.15;;;16.20;99.90;;;;;;4951880;29;20047;-63
2022/10/23 10:25:11;;;;;;;7.45;2.50;;;16.20;99.90;;;;;;4950882;29;20414;-63
2022/10/23 10:27:47;;;;;;;13.85;4.97;;;16.10;99.90;;;;;;4943795;29;20047;-65
2022/10/23 10:30:17;;;;;;;9.52;4.47;;;16.10;99.90;;;;;;4949511;29;20507;-64
2022/10/23 10:32:55;;;;;;;8.48;2.17;;;16.00;99.90;;;;;;4946506;29;20106;-64
2022/10/23 10:35:38;;;;;;;7.43;2.35;;;16.00;99.90;;;;;;4957060;28;20057;-63
2022/10/23 10:38:23;;;;;;;7.20;2.50;;;16.00;99.90;;;;;;4944993;29;20055;-62
2022/10/23 10:40:56;;;;;;;6.72;2.80;;;16.00;99.90;;;;;;4941386;29;20051;-65
2022/10/23 10:43:38;;;;;;;10.05;2.17;;;16.00;99.90;;;;;;4948911;28;20488;-65
2022/10/23 10:46:27;;;;;;;7.80;3.03;;;16.00;99.90;;;;;;4955037;28;20771;-62
2022/10/23 10:48:58;;;;;;;7.72;3.97;;;16.10;99.90;;;;;;4957109;28;20048;-64
2022/10/23 10:51:43;;;;;;;14.60;5.55;;;16.20;99.90;;;;;;4937760;29;20047;-63
2022/10/23 10:54:16;;;;;;;7.82;3.05;;;16.20;99.90;;;;;;4942742;29;20142;-64
2022/10/23 10:56:43;;;;;;;10.02;2.45;;;16.30;99.90;;;;;;4945100;28;20051;-64
2022/10/23 10:59:27;;;;;;;6.80;1.92;;;16.40;99.90;;;;;;4943136;29;20396;-64
2022/10/23 11:02:16;;;;;;;7.55;1.98;;;16.50;99.90;;;;;;4928194;29;20047;-64
2022/10/23 11:04:51;;;;;;;3.25;1.35;;;16.60;99.90;;;;;;4959495;28;20047;-66
2022/10/23 11:07:20;;;;;;;4.10;1.17;;;16.70;99.90;;;;;;4945391;29;20102;-64
2022/10/23 11:09:47;;;;;;;4.43;1.40;;;16.80;99.90;;;;;;4933594;29;20562;-63
2022/10/23 11:12:23;;;;;;;6.85;2.00;;;16.80;99.90;;;;;;4943448;29;20074;-63
2022/10/23 11:14:50;;;;;;;6.32;1.98;;;16.80;99.90;;;;;;4939000;28;20723;-66
2022/10/23 11:17:18;;;;;;;4.00;1.40;;;16.80;99.90;;;;;;4960434;28;20080;-66
2022/10/23 11:19:48;;;;;;;5.43;1.45;;;16.90;99.90;;;;;;4947543;28;20138;-63
2022/10/23 11:22:25;;;;;;;5.60;2.08;;;16.90;99.90;;;;;;4965264;28;20059;-63
2022/10/23 11:25:01;;;;;;;5.82;2.40;;;16.90;99.90;;;;;;4946512;29;20531;-64
2022/10/23 11:27:47;;;;;;;10.05;4.63;;;17.00;99.90;;;;;;4944220;29;20055;-65
2022/10/23 11:30:21;;;;;;;12.38;3.47;;;17.00;99.90;;;;;;4957233;28;20460;-64
2022/10/23 11:33:06;;;;;;;6.90;2.50;;;17.00;99.90;;;;;;4938371;29;20077;-65
2022/10/23 11:35:51;;;;;;;7.30;2.65;;;17.00;99.90;;;;;;4945205;29;20065;-65
2022/10/23 11:38:39;;;;;;;6.18;1.98;;;17.00;99.90;;;;;;4941497;29;20111;-67
2022/10/23 11:41:18;;;;;;;14.68;3.10;;;17.10;99.90;;;;;;4950202;28;20106;-63
2022/10/23 11:43:56;;;;;;;14.77;2.15;;;17.10;99.90;;;;;;4956833;28;20122;-65
2022/10/23 11:46:24;;;;;;;10.80;2.17;;;17.20;99.90;;;;;;4938329;29;20094;-64
2022/10/23 11:48:51;;;;;;;6.20;1.90;;;17.20;99.90;;;;;;4939446;29;20051;-64
2022/10/23 11:51:37;;;;;;;5.75;1.95;;;17.20;99.90;;;;;;4954597;28;20055;-64
2022/10/23 11:54:10;;;;;;;8.35;1.80;;;17.20;99.90;;;;;;4940793;29;20062;-63
2022/10/23 11:56:38;;;;;;;11.07;2.25;;;17.30;99.90;;;;;;4937467;28;20054;-64
2022/10/23 11:59:25;;;;;;;7.13;2.10;;;17.30;99.90;;;;;;4945318;28;20056;-63
2022/10/23 12:01:52;;;;;;;11.13;3.20;;;17.50;99.90;;;;;;4965234;28;20090;-63
2022/10/23 12:04:26;;;;;;;10.07;2.40;;;17.50;99.90;;;;;;4959084;28;20485;-64
2022/10/23 12:06:55;;;;;;;11.40;3.20;;;17.60;99.90;;;;;;4930316;29;20526;-66
2022/10/23 12:09:23;;;;;;;12.38;2.30;;;17.70;99.90;;;;;;4943796;29;20055;-63
2022/10/23 12:12:08;;;;;;;9.45;2.33;;;17.80;99.90;;;;;;4931781;29;20057;-64
2022/10/23 12:14:39;;;;;;;7.85;2.15;;;17.90;99.90;;;;;;4960054;28;20069;-64
2022/10/23 12:17:21;;;;;;;14.90;3.00;;;18.00;99.90;;;;;;4942779;29;20102;-65
2022/10/23 12:20:00;;;;;;;12.48;2.22;;;18.00;99.90;;;;;;4943023;29;20063;-65
2022/10/23 12:22:39;;;;;;;12.60;2.40;;;18.10;99.90;;;;;;4952054;29;20055;-65
2022/10/23 12:25:33;;;;;;;9.00;2.10;;;18.10;99.90;;;;;;4939270;29;20043;-63
2022/10/23 12:28:30;;;;;;;7.50;1.70;;;18.00;99.90;;;;;;4933574;29;20656;-63
2022/10/23 12:31:12;;;;;;;12.85;3.22;;;18.00;99.90;;;;;;4951808;28;20355;-64
2022/10/23 12:34:05;;;;;;;14.38;2.20;;;18.00;99.90;;;;;;4943543;29;20047;-64
2022/10/23 12:36:53;;;;;;;10.73;2.75;;;18.00;99.90;;;;;;4943840;28;20393;-64
2022/10/23 12:39:30;;;;;;;20.15;2.38;;;18.10;99.90;;;;;;4944520;29;20061;-64
2022/10/23 12:41:58;;;;;;;13.73;2.03;;;18.00;99.90;;;;;;4942178;29;20162;-65
2022/10/23 12:44:25;;;;;;;11.57;2.33;;;18.00;99.90;;;;;;4951238;29;20058;-64
2022/10/23 12:47:12;;;;;;;15.45;2.28;;;18.00;99.90;;;;;;4967845;28;20063;-61
2022/10/23 12:49:39;;;;;;;8.25;2.47;;;18.10;99.90;;;;;;4947066;29;20051;-65
2022/10/23 12:52:14;;;;;;;10.80;2.28;;;18.20;99.90;;;;;;4936164;29;20098;-65
2022/10/23 12:54:41;;;;;;;10.10;2.53;;;18.20;99.90;;;;;;4947983;29;20418;-66
2022/10/23 12:57:27;;;;;;;11.85;3.80;;;18.20;99.90;;;;;;4951650;29;20134;-66
2022/10/23 13:00:04;;;;;;;10.65;2.63;;;18.30;99.90;;;;;;4949271;28;20048;-64
2022/10/23 13:02:31;;;;;;;11.55;2.75;;;18.30;99.90;;;;;;4938929;29;20058;-66
2022/10/23 13:05:00;;;;;;;8.45;3.08;;;18.40;99.90;;;;;;4935217;29;20043;-66